aviador You're here:

UTAM Decoded Metar

MARY in RUSSIA
Report Time2017-12-11 22:00:00
UTC Time2017-12-11 22:56:38
Flight Rules mvfr MVFR
Wind360° at 06 kt
W.Decomp.*RWY 36: 6.0 kt HW 0.4 kt LCW
Visibility6000 m
Phenomena:N/A
Clouds:N/A
Expected CloudBase > 1,200 ft AGL from Temp-Dew spread
CeilingNone
Temp-4°C (ISA -18)
Dew Point-7°C (80% RH)
AAT-9.0°C
QNH1027 hPa
Density Alt-1,857 ft
Elevation728 ft
Report Wrong Elevation
Raw Report
METAR UTAM 112200Z 36006KT 6000 SKC M04/M07 Q1027 NOSIG=

Extra information for UTAM:More info

Metar Taf Metar & Taf Last 4 Metars F.Rules Stats Wind Profile Meteogram Temp Stats Airport Information Weather charts Add Link Nearby VenuesMetar ALERT Operation Metar Decoded Social comments